Time;durP1;ratioP1;P1;durP2;ratioP2;P2;SDS_P1;SDS_P2;PMS_P1;PMS_P2;Temp;Humidity;BMP_temperature;BMP_pressure;BME280_temperature;BME280_humidity;BME280_pressure;Samples;Min_cycle;Max_cycle;Signal;HPM_P1;HPM_P2
2021/06/25 00:00:36;;;;;;;1.60;1.50;;;;;;;13.20;100.00;94120.84;5133646;28;20563;-82
2021/06/25 00:03:06;;;;;;;2.13;1.60;;;;;;;13.18;100.00;94117.66;5133558;28;20707;-83
2021/06/25 00:05:33;;;;;;;2.57;1.60;;;;;;;13.14;100.00;94117.25;5133780;28;20204;-82
2021/06/25 00:08:01;;;;;;;2.10;1.57;;;;;;;13.16;100.00;94110.00;5133888;28;20203;-82
2021/06/25 00:10:28;;;;;;;4.90;1.63;;;;;;;13.16;100.00;94104.75;5133990;28;20200;-82
2021/06/25 00:12:54;;;;;;;3.80;1.60;;;;;;;13.16;100.00;94110.00;5133317;28;20228;-81
2021/06/25 00:15:21;;;;;;;2.03;1.47;;;;;;;13.17;100.00;94105.53;5133466;28;20197;-81
2021/06/25 00:17:48;;;;;;;5.97;1.70;;;;;;;13.12;100.00;94103.53;5136349;28;20684;-82
2021/06/25 00:20:15;;;;;;;1.70;1.42;;;;;;;13.06;100.00;94112.25;5133491;28;20559;-82
2021/06/25 00:22:42;;;;;;;4.13;1.60;;;;;;;13.01;100.00;94109.44;5134951;28;20197;-82
2021/06/25 00:25:11;;;;;;;4.77;1.87;;;;;;;12.99;100.00;94099.16;5133579;28;20208;-82
2021/06/25 00:27:40;;;;;;;2.60;1.70;;;;;;;13.01;100.00;94099.75;5133314;28;20235;-82
2021/06/25 00:30:07;;;;;;;2.00;1.50;;;;;;;13.07;100.00;94095.50;5133191;28;20193;-82
2021/06/25 00:32:37;;;;;;;2.63;1.70;;;;;;;13.10;100.00;94101.13;5133355;28;20224;-83
2021/06/25 00:35:04;;;;;;;2.97;1.40;;;;;;;13.11;100.00;94101.94;5134496;27;20208;-80
2021/06/25 00:37:31;;;;;;;2.50;1.37;;;;;;;13.12;100.00;94096.50;5136991;27;20662;-80
2021/06/25 00:39:57;;;;;;;1.30;1.20;;;;;;;13.10;100.00;94101.13;5136978;27;20200;-82
2021/06/25 00:42:25;;;;;;;4.73;1.37;;;;;;;13.12;100.00;94103.53;5137200;27;20204;-83
2021/06/25 00:44:55;;;;;;;2.85;1.30;;;;;;;13.16;100.00;94101.31;5138044;27;20768;-83
2021/06/25 00:47:23;;;;;;;2.63;1.60;;;;;;;13.13;100.00;94110.41;5136957;27;20207;-82
2021/06/25 00:49:50;;;;;;;2.90;1.40;;;;;;;13.17;100.00;94103.72;5136879;27;20204;-82
2021/06/25 00:52:19;;;;;;;1.87;1.30;;;;;;;13.15;100.00;94113.59;5136853;27;20227;-82
2021/06/25 00:54:46;;;;;;;4.47;1.60;;;;;;;13.18;100.00;94110.56;5136815;27;20224;-84
2021/06/25 00:57:13;;;;;;;2.50;1.50;;;;;;;13.20;100.00;94108.53;5136340;27;20593;-82
2021/06/25 00:59:41;;;;;;;5.82;1.48;;;;;;;13.22;100.00;94114.41;5136793;27;20199;-81
2021/06/25 01:02:10;;;;;;;2.97;1.50;;;;;;;13.19;100.00;94104.34;5136512;27;20205;-81
2021/06/25 01:04:40;;;;;;;1.85;1.40;;;;;;;13.21;100.00;94104.94;5136693;27;20433;-83
2021/06/25 01:07:07;;;;;;;4.05;1.30;;;;;;;13.21;100.00;94110.16;5136512;27;20559;-82
2021/06/25 01:09:39;;;;;;;4.05;1.38;;;;;;;13.24;100.00;94107.13;5136590;27;20196;-82
2021/06/25 01:12:07;;;;;;;1.30;1.20;;;;;;;13.24;100.00;94107.13;5136437;27;20203;-82
2021/06/25 01:14:33;;;;;;;2.07;1.10;;;;;;;13.21;100.00;94112.00;5136338;27;20196;-81
2021/06/25 01:17:03;;;;;;;1.40;1.30;;;;;;;13.14;100.00;94106.78;5136345;27;20694;-81
2021/06/25 01:19:29;;;;;;;1.50;1.20;;;;;;;13.11;100.00;94101.94;5136215;27;20647;-82
2021/06/25 01:21:57;;;;;;;1.43;1.17;;;;;;;13.06;100.00;94099.16;5136114;27;20204;-79
2021/06/25 01:24:24;;;;;;;1.80;1.43;;;;;;;13.05;100.00;94095.69;5136027;27;20199;-80
2021/06/25 01:26:50;;;;;;;2.90;1.10;;;;;;;13.07;100.00;94095.50;5135957;27;20256;-81
2021/06/25 01:29:19;;;;;;;2.37;1.30;;;;;;;13.08;100.00;94104.97;5136185;27;20197;-81
2021/06/25 01:31:46;;;;;;;2.23;1.40;;;;;;;13.04;100.00;94101.16;5136035;27;20205;-81
2021/06/25 01:34:12;;;;;;;1.30;1.17;;;;;;;13.08;100.00;94097.91;5135787;27;20579;-81
2021/06/25 01:36:39;;;;;;;1.50;1.20;;;;;;;13.02;100.00;94095.31;5135697;27;20197;-81
2021/06/25 01:39:08;;;;;;;3.60;1.30;;;;;;;13.01;100.00;94096.34;5136066;27;20201;-81
2021/06/25 01:41:38;;;;;;;2.13;1.40;;;;;;;13.06;100.00;94094.69;5135932;27;20201;-81
2021/06/25 01:44:04;;;;;;;2.57;1.60;;;;;;;13.07;100.00;94098.94;5136061;27;20197;-81
2021/06/25 01:46:32;;;;;;;3.00;1.93;;;;;;;13.06;100.00;94102.56;5135600;27;20204;-80
2021/06/25 01:49:02;;;;;;;2.22;1.50;;;;;;;13.10;100.00;94102.94;5134495;27;20429;-82
2021/06/25 01:51:28;;;;;;;3.00;1.40;;;;;;;13.07;100.00;94096.31;5135508;27;20201;-82
2021/06/25 01:53:56;;;;;;;3.17;1.40;;;;;;;13.07;100.00;94100.72;5135664;27;20224;-81
2021/06/25 01:56:24;;;;;;;2.33;1.40;;;;;;;13.02;100.00;94100.56;5135258;27;20219;-80
2021/06/25 01:58:50;;;;;;;2.97;1.30;;;;;;;13.02;100.00;94096.09;5135452;27;20197;-80
2021/06/25 02:01:17;;;;;;;2.20;1.30;;;;;;;13.02;100.00;94087.44;5135486;27;20197;-81
2021/06/25 02:03:48;;;;;;;9.47;2.80;;;;;;;13.02;100.00;94084.81;5134707;27;20251;-81
2021/06/25 02:06:15;;;;;;;1.87;1.40;;;;;;;13.00;100.00;94089.47;5135518;27;20193;-81
2021/06/25 02:08:43;;;;;;;3.03;1.40;;;;;;;12.94;100.00;94091.91;5135390;27;20197;-80
2021/06/25 02:11:11;;;;;;;1.97;1.20;;;;;;;13.01;100.00;94084.03;5135273;27;20303;-81
2021/06/25 02:13:39;;;;;;;3.90;1.40;;;;;;;13.01;100.00;94080.63;5135152;27;20331;-81
2021/06/25 02:16:05;;;;;;;1.33;1.20;;;;;;;13.02;100.00;94084.81;5135137;27;20224;-80
2021/06/25 02:18:32;;;;;;;1.63;1.47;;;;;;;13.00;100.00;94076.38;5134966;27;20193;-83
2021/06/25 02:20:58;;;;;;;6.07;1.70;;;;;;;12.96;100.00;94078.59;5135077;27;20200;-82
2021/06/25 02:23:25;;;;;;;2.77;1.40;;;;;;;12.93;100.00;94069.34;5135074;27;20205;-82
2021/06/25 02:25:52;;;;;;;3.83;1.30;;;;;;;12.88;100.00;94078.84;5134721;27;20203;-80
2021/06/25 02:28:19;;;;;;;1.73;1.13;;;;;;;12.92;100.00;94072.16;5134883;27;20417;-82
2021/06/25 02:30:47;;;;;;;2.90;1.50;;;;;;;12.90;100.00;94074.19;5134048;27;20437;-82
2021/06/25 02:33:14;;;;;;;2.22;1.52;;;;;;;12.93;100.00;94071.94;5134504;27;20706;-81
2021/06/25 02:35:41;;;;;;;1.80;1.43;;;;;;;12.98;100.00;94071.34;5134933;27;20197;-81
2021/06/25 02:38:07;;;;;;;2.23;1.30;;;;;;;12.93;100.00;94068.53;5134677;27;20288;-81
2021/06/25 02:40:34;;;;;;;4.33;1.30;;;;;;;12.90;100.00;94072.38;5134651;27;20208;-81
2021/06/25 02:43:01;;;;;;;3.00;1.50;;;;;;;12.94;100.00;94073.56;5134548;27;20216;-82
2021/06/25 02:45:27;;;;;;;5.13;1.43;;;;;;;13.01;100.00;94073.56;5134404;27;20200;-82
2021/06/25 02:47:55;;;;;;;6.47;1.20;;;;;;;13.02;100.00;94069.09;5134708;27;20228;-81
2021/06/25 02:50:21;;;;;;;1.77;1.07;;;;;;;13.04;100.00;94074.94;5134332;27;20578;-80
2021/06/25 02:52:48;;;;;;;2.03;0.90;;;;;;;13.02;100.00;94074.34;5134270;27;20709;-82
2021/06/25 02:55:15;;;;;;;1.23;1.13;;;;;;;13.00;100.00;94071.94;5134325;27;20295;-81
2021/06/25 02:57:44;;;;;;;1.40;1.27;;;;;;;13.01;100.00;94070.13;5133763;27;20555;-81
2021/06/25 03:00:14;;;;;;;1.23;1.00;;;;;;;12.98;100.00;94073.16;5134171;27;20283;-82
2021/06/25 03:02:41;;;;;;;3.30;1.20;;;;;;;13.05;100.00;94072.09;5133335;27;20422;-81
2021/06/25 03:05:11;;;;;;;3.60;1.20;;;;;;;13.01;100.00;94070.13;5134353;27;20192;-81
2021/06/25 03:07:37;;;;;;;3.13;1.00;;;;;;;12.93;100.00;94071.94;5134186;27;20559;-81
2021/06/25 03:10:08;;;;;;;2.33;1.40;;;;;;;12.89;100.00;94073.41;5134087;27;20265;-80
2021/06/25 03:12:38;;;;;;;2.72;1.50;;;;;;;12.90;100.00;94079.44;5133622;27;20429;-81
2021/06/25 03:15:07;;;;;;;2.37;1.43;;;;;;;12.83;100.00;94074.22;5134221;27;20207;-81
2021/06/25 03:17:33;;;;;;;1.33;1.23;;;;;;;12.86;100.00;94073.81;5134152;27;20282;-81
2021/06/25 03:20:03;;;;;;;1.80;1.40;;;;;;;12.88;100.00;94079.63;5134011;27;20208;-82
2021/06/25 03:22:31;;;;;;;2.07;1.63;;;;;;;12.81;100.00;94078.84;5134012;27;20208;-81
2021/06/25 03:24:57;;;;;;;1.50;1.20;;;;;;;12.76;100.00;94073.44;5133796;27;20536;-80
2021/06/25 03:27:24;;;;;;;2.30;1.33;;;;;;;12.74;100.00;94072.84;5133826;27;20307;-82
2021/06/25 03:29:50;;;;;;;2.40;1.60;;;;;;;12.70;100.00;94072.44;5133767;27;20201;-81
2021/06/25 03:32:17;;;;;;;6.63;1.53;;;;;;;12.58;100.00;94072.25;5133881;28;20233;-79
2021/06/25 03:34:43;;;;;;;2.50;1.50;;;;;;;12.57;100.00;94075.91;5133821;28;20228;-80
2021/06/25 03:37:10;;;;;;;2.23;1.60;;;;;;;12.54;100.00;94072.88;5133800;28;20201;-79
2021/06/25 03:39:38;;;;;;;2.40;1.70;;;;;;;12.53;100.00;94081.75;5133813;28;20537;-81
2021/06/25 03:42:05;;;;;;;2.87;1.90;;;;;;;12.59;100.00;94070.47;5133977;28;20208;-81
2021/06/25 03:44:32;;;;;;;2.03;1.50;;;;;;;12.63;100.00;94073.47;5133970;28;20287;-80
2021/06/25 03:46:58;;;;;;;2.38;1.50;;;;;;;12.63;100.00;94074.28;5133986;28;20196;-81
2021/06/25 03:49:25;;;;;;;4.13;1.77;;;;;;;12.59;100.00;94079.13;5133767;28;20193;-80
2021/06/25 03:51:52;;;;;;;2.00;1.60;;;;;;;12.57;100.00;94081.16;5133749;28;20235;-80
2021/06/25 03:54:18;;;;;;;3.30;1.83;;;;;;;12.54;100.00;94086.78;5133511;28;20235;-81
2021/06/25 03:56:46;;;;;;;5.43;1.80;;;;;;;12.52;100.00;94086.19;5133029;28;20664;-81
2021/06/25 03:59:13;;;;;;;6.17;1.90;;;;;;;12.54;100.00;94076.31;5133829;28;20228;-80
2021/06/25 04:01:39;;;;;;;2.13;1.83;;;;;;;12.53;100.00;94077.31;5133548;28;20655;-80
2021/06/25 04:04:08;;;;;;;2.30;1.73;;;;;;;12.54;100.00;94083.34;5133462;28;20201;-81
2021/06/25 04:06:34;;;;;;;3.63;1.80;;;;;;;12.58;100.00;94080.13;5133508;28;20192;-81
2021/06/25 04:09:01;;;;;;;1.93;1.40;;;;;;;12.61;100.00;94080.72;5133450;27;20197;-82
2021/06/25 04:11:27;;;;;;;3.03;1.63;;;;;;;12.63;100.00;94070.84;5137360;27;20200;-81
2021/06/25 04:13:55;;;;;;;4.47;1.47;;;;;;;12.65;100.00;94076.69;5137819;27;20679;-80
2021/06/25 04:16:22;;;;;;;1.40;1.30;;;;;;;12.61;100.00;94071.06;5137611;27;20192;-82
2021/06/25 04:18:48;;;;;;;2.80;1.30;;;;;;;12.58;100.00;94072.25;5137381;27;20203;-80
2021/06/25 04:21:15;;;;;;;1.27;0.83;;;;;;;12.61;100.00;94070.22;5138610;27;20196;-83
2021/06/25 04:23:44;;;;;;;0.80;0.80;;;;;;;12.65;100.00;94071.44;5137689;27;20235;-80
2021/06/25 04:26:11;;;;;;;1.13;0.73;;;;;;;12.65;100.00;94074.06;5137332;27;20232;-82
2021/06/25 04:28:37;;;;;;;2.73;0.90;;;;;;;12.65;100.00;94077.47;5137420;27;20192;-82
2021/06/25 04:31:05;;;;;;;1.90;0.90;;;;;;;12.65;100.00;94080.09;5137102;27;20622;-83
2021/06/25 04:33:31;;;;;;;1.50;0.80;;;;;;;12.58;100.00;94080.13;5137023;27;20232;-84
2021/06/25 04:35:58;;;;;;;1.30;1.10;;;;;;;12.61;100.00;94078.09;5137248;27;20200;-80
2021/06/25 04:38:24;;;;;;;1.00;0.87;;;;;;;12.64;100.00;94073.28;5137185;27;20196;-83
2021/06/25 04:40:52;;;;;;;1.73;1.00;;;;;;;12.64;100.00;94085.53;5136907;27;20196;-82
2021/06/25 04:43:19;;;;;;;1.40;1.00;;;;;;;12.66;100.00;94086.16;5136885;27;20242;-82
2021/06/25 04:45:46;;;;;;;5.07;1.20;;;;;;;12.72;100.00;94085.31;5136861;27;20288;-82
2021/06/25 04:48:17;;;;;;;3.43;1.30;;;;;;;12.74;100.00;94081.50;5136795;27;20558;-82
2021/06/25 04:50:44;;;;;;;1.23;0.90;;;;;;;12.65;100.00;94082.72;5136787;27;20207;-81
2021/06/25 04:53:11;;;;;;;1.20;1.10;;;;;;;12.64;100.00;94080.31;5136778;27;20201;-83
2021/06/25 04:55:42;;;;;;;2.77;1.27;;;;;;;12.66;100.00;94084.34;5136701;27;20300;-83
2021/06/25 04:58:09;;;;;;;0.80;0.80;;;;;;;12.59;100.00;94083.56;5137363;27;20204;-84
2021/06/25 05:00:36;;;;;;;1.87;1.03;;;;;;;12.69;100.00;94080.50;5137010;27;20209;-82
2021/06/25 05:03:06;;;;;;;2.20;0.70;;;;;;;12.62;100.00;94085.75;5136886;27;20204;-81
2021/06/25 05:05:36;;;;;;;2.93;0.90;;;;;;;12.70;100.00;94080.28;5136710;27;20201;-83
2021/06/25 05:08:04;;;;;;;1.17;0.93;;;;;;;12.73;100.00;94082.50;5136390;27;20520;-82
2021/06/25 05:10:31;;;;;;;1.40;0.97;;;;;;;12.78;100.00;94077.44;5136477;27;20201;-82
2021/06/25 05:12:57;;;;;;;1.47;1.00;;;;;;;12.85;100.00;94079.25;5136342;27;20563;-81
2021/06/25 05:15:24;;;;;;;1.03;0.60;;;;;;;12.83;100.00;94073.41;5136072;27;20235;-82
2021/06/25 05:17:52;;;;;;;1.53;1.07;;;;;;;12.81;100.00;94071.00;5136445;27;20207;-82
2021/06/25 05:20:20;;;;;;;1.00;0.90;;;;;;;12.77;100.00;94077.66;5135210;27;20908;-81
2021/06/25 05:22:48;;;;;;;2.03;1.40;;;;;;;12.74;100.00;94078.88;5136388;27;20696;-82
2021/06/25 05:25:15;;;;;;;1.90;1.20;;;;;;;12.80;100.00;94085.09;5137044;27;20563;-82
2021/06/25 05:27:41;;;;;;;1.67;1.10;;;;;;;12.71;100.00;94086.34;5135953;27;20228;-82
2021/06/25 05:30:10;;;;;;;1.23;0.90;;;;;;;12.77;100.00;94086.34;5136360;27;20200;-82
2021/06/25 05:32:39;;;;;;;1.23;0.97;;;;;;;12.68;100.00;94084.13;5137197;27;20225;-83
2021/06/25 05:35:06;;;;;;;4.40;1.20;;;;;;;12.76;100.00;94084.72;5136669;27;20224;-84
2021/06/25 05:37:34;;;;;;;1.03;0.90;;;;;;;12.80;100.00;94086.94;5136388;27;20193;-83
2021/06/25 05:40:03;;;;;;;3.73;1.40;;;;;;;12.74;100.00;94091.19;5136925;27;20203;-83
2021/06/25 05:42:32;;;;;;;3.07;1.03;;;;;;;12.75;100.00;94092.78;5136173;27;20200;-84
2021/06/25 05:44:58;;;;;;;1.57;1.10;;;;;;;12.67;100.00;94093.78;5135813;27;20197;-82
2021/06/25 05:47:25;;;;;;;1.87;1.10;;;;;;;12.68;100.00;94095.41;5135558;27;20200;-82
2021/06/25 05:49:51;;;;;;;1.67;1.30;;;;;;;12.70;100.00;94097.81;5135743;27;20647;-82
2021/06/25 05:52:18;;;;;;;1.10;1.00;;;;;;;12.75;100.00;94098.00;5135606;27;20197;-81
2021/06/25 05:54:44;;;;;;;3.80;1.53;;;;;;;12.62;100.00;94103.28;5135521;27;20213;-84
2021/06/25 05:57:12;;;;;;;2.17;1.50;;;;;;;12.54;100.00;94109.53;5138287;27;20200;-84
2021/06/25 05:59:39;;;;;;;5.00;1.80;;;;;;;12.58;100.00;94108.94;5136065;27;20200;-82
2021/06/25 06:02:06;;;;;;;3.08;1.90;;;;;;;12.64;100.00;94111.75;5135560;27;20516;-82
2021/06/25 06:04:32;;;;;;;3.83;2.30;;;;;;;12.63;100.00;94116.19;5135591;27;20670;-82
2021/06/25 06:07:01;;;;;;;3.20;2.00;;;;;;;12.65;100.00;94124.63;5135069;27;20193;-82
2021/06/25 06:09:27;;;;;;;3.87;2.47;;;;;;;12.64;100.00;94117.81;5135268;27;20231;-81
2021/06/25 06:11:54;;;;;;;3.87;2.50;;;;;;;12.67;100.00;94121.81;5135300;27;20211;-82
2021/06/25 06:14:21;;;;;;;3.20;2.50;;;;;;;12.55;100.00;94113.78;5135287;27;20270;-81
2021/06/25 06:16:48;;;;;;;5.13;2.80;;;;;;;12.67;100.00;94120.00;5135105;27;20197;-83
2021/06/25 06:19:16;;;;;;;4.63;3.10;;;;;;;12.60;100.00;94119.22;5135075;27;20231;-82
2021/06/25 06:32:50;;;;;;;4.63;3.40;;;;;;;12.64;100.00;94116.97;5134232;27;20586;-81
2021/06/25 06:35:19;;;;;;;6.70;3.50;;;;;;;12.72;100.00;94130.69;5134640;27;20220;-84
2021/06/25 06:37:49;;;;;;;6.20;3.07;;;;;;;12.69;100.00;94131.09;5134708;27;20540;-82
2021/06/25 06:40:19;;;;;;;4.03;2.50;;;;;;;12.51;100.00;94129.09;5134459;27;20196;-81
2021/06/25 06:42:47;;;;;;;5.37;3.17;;;;;;;12.59;100.00;94138.56;5134466;27;20196;-85
2021/06/25 06:45:17;;;;;;;4.10;2.80;;;;;;;12.53;100.00;94134.94;5134758;27;20912;-82
2021/06/25 06:47:46;;;;;;;5.87;3.40;;;;;;;12.58;100.00;94150.03;5135937;27;20253;-83
2021/06/25 06:50:13;;;;;;;4.83;2.47;;;;;;;12.44;100.00;94137.97;5135114;27;20204;-81
2021/06/25 06:52:42;;;;;;;6.23;3.10;;;;;;;12.47;100.00;94143.59;5135466;27;20197;-81
2021/06/25 06:55:10;;;;;;;5.00;3.47;;;;;;;12.49;100.00;94141.59;5135045;27;20315;-83
2021/06/25 06:57:37;;;;;;;4.73;3.17;;;;;;;12.49;100.00;94149.44;5135070;27;20204;-83
2021/06/25 07:00:10;;;;;;;5.97;2.90;;;;;;;12.47;100.00;94148.81;5134868;27;20224;-82
2021/06/25 07:02:39;;;;;;;7.90;3.40;;;;;;;12.47;100.00;94142.78;5134507;27;20283;-81
2021/06/25 07:05:10;;;;;;;4.00;3.23;;;;;;;12.40;100.00;94148.84;5134330;27;20200;-82
2021/06/25 07:07:39;;;;;;;6.57;4.17;;;;;;;12.43;100.00;94147.63;5134250;27;20207;-82
2021/06/25 07:10:08;;;;;;;9.80;4.60;;;;;;;12.50;100.00;94153.66;5134699;27;20197;-83
2021/06/25 07:12:34;;;;;;;7.73;4.87;;;;;;;12.56;100.00;94142.38;5134314;27;20201;-82
2021/06/25 07:15:01;;;;;;;9.03;5.37;;;;;;;12.71;100.00;94150.03;5134074;27;20273;-82
2021/06/25 07:17:28;;;;;;;8.57;5.40;;;;;;;12.92;100.00;94146.38;5134159;27;20212;-84
2021/06/25 07:19:55;;;;;;;13.03;5.03;;;;;;;12.99;100.00;94140.28;5133810;27;20200;-83
2021/06/25 07:22:22;;;;;;;6.40;4.53;;;;;;;13.11;100.00;94138.66;5133944;27;20205;-83
2021/06/25 07:24:48;;;;;;;7.27;4.60;;;;;;;13.19;100.00;94148.91;5134026;27;20212;-84
2021/06/25 07:27:15;;;;;;;7.47;4.47;;;;;;;13.17;100.00;94153.53;5133815;27;20224;-83
2021/06/25 07:29:43;;;;;;;6.40;3.93;;;;;;;12.99;100.00;94142.91;5134322;27;20197;-82
2021/06/25 07:32:09;;;;;;;6.83;4.57;;;;;;;13.15;100.00;94150.31;5133629;28;20557;-82
2021/06/25 07:34:37;;;;;;;7.30;3.97;;;;;;;13.08;100.00;94147.72;5133751;28;20224;-82
2021/06/25 07:37:08;;;;;;;6.90;4.40;;;;;;;13.06;100.00;94152.38;5133888;28;20208;-84
2021/06/25 07:39:35;;;;;;;8.50;4.93;;;;;;;12.95;100.00;94151.16;5134528;28;20205;-82
2021/06/25 07:42:01;;;;;;;8.33;5.10;;;;;;;13.10;100.00;94147.50;5135468;28;20201;-85
2021/06/25 07:44:28;;;;;;;9.03;4.90;;;;;;;13.04;100.00;94137.84;5136924;27;20651;-83
2021/06/25 07:46:54;;;;;;;7.63;4.40;;;;;;;12.87;100.00;94146.19;5138226;27;20196;-82
2021/06/25 07:49:21;;;;;;;8.17;4.63;;;;;;;12.86;100.00;94141.94;5138124;27;20563;-83
2021/06/25 07:51:48;;;;;;;7.67;4.40;;;;;;;12.87;100.00;94143.56;5138119;27;20689;-84
2021/06/25 07:54:18;;;;;;;8.80;4.63;;;;;;;12.86;100.00;94157.66;5138236;27;20280;-83
2021/06/25 07:56:44;;;;;;;7.67;4.77;;;;;;;12.81;100.00;94154.84;5138160;27;20600;-82
2021/06/25 07:59:11;;;;;;;8.60;5.07;;;;;;;12.94;100.00;94149.56;5137990;27;20200;-83
2021/06/25 08:01:40;;;;;;;7.35;4.18;;;;;;;12.95;100.00;94145.13;5137887;27;20208;-81
2021/06/25 08:04:07;;;;;;;5.50;3.93;;;;;;;12.82;100.00;94151.19;5137634;27;20223;-82
2021/06/25 08:06:33;;;;;;;7.33;3.27;;;;;;;12.75;100.00;94153.03;5137371;27;20197;-81
2021/06/25 08:09:03;;;;;;;6.57;3.90;;;;;;;12.76;100.00;94152.03;5137807;27;20197;-80
2021/06/25 08:11:31;;;;;;;4.40;3.47;;;;;;;12.79;100.00;94156.88;5137689;27;20212;-82
2021/06/25 08:13:58;;;;;;;7.60;3.57;;;;;;;12.73;100.00;94158.47;5137357;27;20211;-82
2021/06/25 08:16:25;;;;;;;7.97;3.80;;;;;;;12.70;100.00;94158.88;5137488;27;20235;-81
2021/06/25 08:18:56;;;;;;;6.30;4.30;;;;;;;12.66;100.00;94159.50;5137283;27;20279;-80
2021/06/25 08:21:23;;;;;;;5.80;3.90;;;;;;;12.67;100.00;94156.66;5137628;27;20199;-81
2021/06/25 08:23:49;;;;;;;12.43;4.90;;;;;;;12.83;100.00;94159.88;5137438;27;20205;-80
2021/06/25 08:26:16;;;;;;;7.07;4.37;;;;;;;12.91;100.00;94164.91;5136987;27;20695;-80
2021/06/25 08:28:44;;;;;;;7.27;4.33;;;;;;;12.90;100.00;94158.03;5137192;27;20207;-82
2021/06/25 08:31:10;;;;;;;8.67;4.40;;;;;;;12.84;100.00;94159.69;5137067;27;20562;-81
2021/06/25 08:33:37;;;;;;;7.20;4.43;;;;;;;12.87;100.00;94161.06;5137036;27;20192;-82
2021/06/25 08:36:10;;;;;;;9.90;4.67;;;;;;;13.06;100.00;94156.81;5137222;27;20225;-80
2021/06/25 08:38:36;;;;;;;6.90;4.63;;;;;;;13.24;100.00;94164.81;5137091;27;20200;-81
2021/06/25 08:41:03;;;;;;;7.77;4.87;;;;;;;13.36;100.00;94161.59;5137021;27;20193;-81
2021/06/25 08:43:30;;;;;;;8.07;4.73;;;;;;;13.48;100.00;94154.66;5136899;27;20604;-82
2021/06/25 08:46:00;;;;;;;9.07;4.73;;;;;;;13.63;100.00;94144.69;5136754;27;20254;-81
2021/06/25 08:48:29;;;;;;;9.37;5.23;;;;;;;13.82;100.00;94150.03;5137034;27;20219;-82
2021/06/25 08:50:58;;;;;;;11.57;5.32;;;;;;;13.97;100.00;94150.56;5136860;27;20223;-81
2021/06/25 08:53:27;;;;;;;7.93;5.60;;;;;;;13.81;100.00;94153.69;5136089;27;20441;-82
2021/06/25 08:55:54;;;;;;;7.13;4.77;;;;;;;13.76;100.00;94156.16;5135841;27;20231;-82
2021/06/25 08:58:22;;;;;;;7.65;4.78;;;;;;;13.91;100.00;94154.03;5136632;27;20223;-79
2021/06/25 09:00:52;;;;;;;6.93;5.13;;;;;;;14.23;100.00;94146.13;5136806;27;20305;-82
2021/06/25 09:03:21;;;;;;;9.80;5.50;;;;;;;14.49;100.00;94146.94;5136705;27;20204;-79
2021/06/25 09:05:48;;;;;;;7.03;4.78;;;;;;;14.12;100.00;94154.69;5136567;27;20196;-82
2021/06/25 09:08:28;;;;;;;8.45;5.07;;;;;;;14.59;100.00;94147.31;5136393;27;20307;-80
2021/06/25 09:10:58;;;;;;;9.38;5.05;;;;;;;15.13;100.00;94158.09;5136327;27;20210;-81
2021/06/25 09:13:35;;;;;;;7.80;4.68;;;;;;;14.91;100.00;94149.84;5136264;27;20285;-82
2021/06/25 09:16:18;;;;;;;7.85;5.10;;;;;;;14.78;100.00;94156.81;5136001;27;20236;-82
2021/06/25 09:19:02;;;;;;;8.27;4.65;;;;;;;14.80;100.00;94152.16;5136223;27;20200;-81
2021/06/25 09:21:30;;;;;;;11.43;5.32;;;;;;;15.04;100.00;94156.75;5136111;27;20235;-82
2021/06/25 09:24:14;;;;;;;8.85;5.50;;;;;;;15.18;100.00;94153.78;5136199;27;20201;-81
2021/06/25 09:26:44;;;;;;;8.40;5.65;;;;;;;15.38;100.00;94150.13;5135776;27;20598;-82
2021/06/25 09:29:16;;;;;;;8.85;5.53;;;;;;;15.30;100.00;94150.41;5136030;27;20197;-80
2021/06/25 09:31:44;;;;;;;8.90;5.25;;;;;;;15.76;100.00;94158.81;5135848;27;20197;-80
2021/06/25 09:34:18;;;;;;;8.50;5.18;;;;;;;15.77;100.00;94155.97;5135831;27;20666;-81
2021/06/25 09:36:46;;;;;;;9.40;5.60;;;;;;;15.72;100.00;94150.50;5135917;27;20319;-80
2021/06/25 09:39:15;;;;;;;7.28;5.30;;;;;;;16.03;100.00;94152.13;5135859;27;20196;-80
2021/06/25 09:41:43;;;;;;;7.95;5.13;;;;;;;15.40;100.00;94152.53;5135920;27;20288;-80
2021/06/25 09:44:17;;;;;;;14.25;5.80;;;;;;;15.14;100.00;94157.88;5135702;27;20201;-82
2021/06/25 09:46:49;;;;;;;10.38;5.93;;;;;;;15.31;100.00;94152.03;5135489;27;20575;-81
2021/06/25 09:49:37;;;;;;;9.57;5.68;;;;;;;15.27;100.00;94156.13;5135650;27;20679;-81
2021/06/25 09:52:05;;;;;;;15.65;6.50;;;;;;;14.99;100.00;94152.97;5135517;27;20670;-80
2021/06/25 09:54:33;;;;;;;10.20;6.30;;;;;;;14.94;100.00;94162.56;5135276;27;20697;-80
2021/06/25 09:57:07;;;;;;;11.88;6.20;;;;;;;14.67;100.00;94152.28;5135800;27;20224;-83
2021/06/25 10:02:28;;;;;;;11.85;6.78;;;;;;;14.51;100.00;94150.19;5135478;27;20196;-81
2021/06/25 10:04:57;;;;;;;11.63;7.18;;;;;;;14.30;100.00;94157.41;5135226;27;20658;-81
2021/06/25 10:07:26;;;;;;;12.18;7.55;;;;;;;14.32;100.00;94155.38;5134123;27;20279;-81
2021/06/25 10:09:57;;;;;;;10.98;7.18;;;;;;;14.46;100.00;94150.03;5134811;27;20207;-82
2021/06/25 10:12:26;;;;;;;15.90;7.45;;;;;;;14.48;100.00;94150.59;5134481;27;20204;-82
2021/06/25 10:14:54;;;;;;;13.48;7.50;;;;;;;14.53;100.00;94150.75;5134914;27;20196;-81
2021/06/25 10:17:25;;;;;;;14.02;8.65;;;;;;;14.75;100.00;94149.34;5134769;27;20456;-82
2021/06/25 10:19:54;;;;;;;12.00;7.35;;;;;;;15.09;100.00;94164.81;5134713;27;20204;-80
2021/06/25 10:22:25;;;;;;;16.35;7.53;;;;;;;14.59;100.00;94160.44;5134789;27;20200;-80
2021/06/25 10:24:53;;;;;;;15.75;8.60;;;;;;;14.58;100.00;94158.78;5134803;27;20207;-80
2021/06/25 10:27:23;;;;;;;15.95;9.05;;;;;;;14.32;100.00;94155.38;5131954;27;20292;-87
2021/06/25 10:29:51;;;;;;;16.70;8.43;;;;;;;14.63;100.00;94164.25;5136029;27;20205;-81
2021/06/25 10:32:20;;;;;;;13.60;8.07;;;;;;;15.02;100.00;94164.06;5135137;27;20555;-80
2021/06/25 10:34:52;;;;;;;11.70;7.65;;;;;;;15.68;100.00;94162.50;5134787;27;20667;-82
2021/06/25 10:37:23;;;;;;;14.00;7.50;;;;;;;16.16;100.00;94161.69;5135096;27;20291;-83
2021/06/25 10:39:54;;;;;;;13.40;7.80;;;;;;;16.13;100.00;94164.75;5134694;27;20218;-85
2021/06/25 10:42:21;;;;;;;14.95;7.47;;;;;;;16.13;100.00;94154.22;5134765;27;20200;-84
2021/06/25 10:44:54;;;;;;;12.70;7.53;;;;;;;15.64;100.00;94158.72;5134737;27;20287;-83
2021/06/25 10:47:26;;;;;;;11.48;7.20;;;;;;;15.90;100.00;94150.50;5134922;27;20196;-81
2021/06/25 10:50:19;;;;;;;12.10;6.72;;;;;;;15.76;100.00;94164.88;5134819;27;20720;-82
2021/06/25 10:53:11;;;;;;;12.70;6.97;;;;;;;15.50;100.00;94161.53;5134127;27;20199;-83
2021/06/25 10:55:46;;;;;;;9.43;6.78;;;;;;;15.50;100.00;94160.69;5134401;27;20251;-81
2021/06/25 10:58:20;;;;;;;11.00;7.00;;;;;;;16.09;100.00;94159.16;5134630;27;20195;-81
2021/06/25 11:00:56;;;;;;;12.48;6.97;;;;;;;16.91;100.00;94160.31;5135794;27;20208;-80
2021/06/25 11:03:42;;;;;;;13.13;7.32;;;;;;;17.30;100.00;94159.78;5137999;27;20223;-83
2021/06/25 11:06:13;;;;;;;10.63;6.05;;;;;;;18.28;100.00;94159.81;5134411;27;20605;-81
2021/06/25 11:09:03;;;;;;;10.50;5.90;;;;;;;17.59;100.00;94163.31;5138888;27;20208;-86
2021/06/25 11:11:30;;;;;;;11.73;6.13;;;;;;;17.62;100.00;94160.19;5136490;27;20643;-81
2021/06/25 11:13:57;;;;;;;9.80;5.47;;;;;;;17.64;100.00;94166.03;5137478;27;20239;-83
2021/06/25 11:16:24;;;;;;;9.85;5.47;;;;;;;17.93;99.45;94163.44;5137591;27;20225;-85
2021/06/25 11:18:50;;;;;;;7.85;5.18;;;;;;;18.02;99.55;94164.66;5137976;27;20197;-84
2021/06/25 11:21:17;;;;;;;6.78;4.50;;;;;;;17.32;100.00;94163.00;5137916;27;20203;-81
2021/06/25 11:23:46;;;;;;;9.13;4.97;;;;;;;17.37;100.00;94157.84;5137275;27;20201;-82
2021/06/25 11:26:25;;;;;;;9.63;5.05;;;;;;;17.02;100.00;94162.13;5138396;27;20236;-82
2021/06/25 11:28:54;;;;;;;8.75;4.75;;;;;;;16.60;100.00;94162.22;5136515;27;20685;-79
2021/06/25 11:31:25;;;;;;;9.00;5.18;;;;;;;16.85;100.00;94163.06;5135000;27;20200;-83
2021/06/25 11:33:57;;;;;;;8.65;5.38;;;;;;;16.70;100.00;94155.56;5135228;28;20196;-81
2021/06/25 11:36:32;;;;;;;7.30;4.53;;;;;;;17.29;100.00;94158.22;5134813;28;20221;-84
2021/06/25 11:39:10;;;;;;;9.13;4.88;;;;;;;17.54;96.08;94153.44;5137884;28;20199;-82
2021/06/25 11:41:46;;;;;;;7.70;4.63;;;;;;;17.73;94.70;94151.41;5135955;28;20197;-83
2021/06/25 11:44:14;;;;;;;7.50;4.32;;;;;;;17.99;98.22;94159.84;5138221;28;20291;-82